createdAt,value
2022-11-26T09:15:42.367Z,48.25
2022-11-26T09:18:08.937Z,55.70
2022-11-26T09:20:35.481Z,60.85
2022-11-26T09:23:02.026Z,56.13
2022-11-26T09:25:28.586Z,44.95
2022-11-26T09:27:55.133Z,44.80
2022-11-26T09:30:21.675Z,60.00
2022-11-26T09:32:48.321Z,60.17
2022-11-26T09:35:15.020Z,53.25
2022-11-26T09:37:41.629Z,58.45
2022-11-26T09:40:11.746Z,52.85
2022-11-26T09:42:50.258Z,61.17
2022-11-26T09:50:36.720Z,57.10
2022-11-26T09:53:16.139Z,65.85
2022-11-26T09:55:45.142Z,54.60
2022-11-26T09:58:16.242Z,56.35
2022-11-26T10:00:45.482Z,59.65
2022-11-26T10:03:20.444Z,63.03
2022-11-26T10:06:07.058Z,54.15
2022-11-26T10:09:12.227Z,50.97
2022-11-26T10:12:04.356Z,47.25
2022-11-26T10:14:57.559Z,58.17
2022-11-26T10:17:26.970Z,51.40
2022-11-26T10:20:05.453Z,63.50
2022-11-26T10:24:59.892Z,55.15
2022-11-26T10:27:30.839Z,48.83
2022-11-26T10:30:16.644Z,54.42
2022-11-26T10:32:44.153Z,56.95
2022-11-26T10:35:15.865Z,69.60
2022-11-26T10:37:42.639Z,68.10
2022-11-26T10:40:25.580Z,68.22
2022-11-26T10:43:01.414Z,80.95
2022-11-26T10:45:43.218Z,76.90
2022-11-26T10:48:22.187Z,68.97
2022-11-26T10:51:00.872Z,66.97
2022-11-26T10:53:29.451Z,56.80
2022-11-26T10:58:26.559Z,71.72
2022-11-26T11:01:04.779Z,60.75
2022-11-26T11:06:21.762Z,76.05
2022-11-26T11:08:50.033Z,70.80
2022-11-26T11:11:30.663Z,64.85
2022-11-26T11:13:57.648Z,67.72
2022-11-26T11:16:30.498Z,65.32
2022-11-26T11:18:58.884Z,63.53
2022-11-26T11:21:34.368Z,66.22
2022-11-26T11:24:16.385Z,65.97
2022-11-26T11:26:47.843Z,61.97
2022-11-26T11:29:29.709Z,64.00
2022-11-26T11:31:57.689Z,72.20
2022-11-26T11:34:29.747Z,67.70
2022-11-26T11:37:05.071Z,68.22
2022-11-26T11:39:35.482Z,74.88
2022-11-26T11:42:04.862Z,62.47
2022-11-26T11:44:48.280Z,64.93
2022-11-26T11:47:37.471Z,55.00
2022-11-26T11:50:17.563Z,58.08
2022-11-26T11:53:01.976Z,60.10
2022-11-26T11:56:02.068Z,56.78
2022-11-26T11:58:47.425Z,61.28
2022-11-26T12:01:41.430Z,59.63
2022-11-26T12:04:20.241Z,59.53
2022-11-26T12:07:08.698Z,55.35
2022-11-26T12:09:39.790Z,51.60
2022-11-26T12:12:25.331Z,73.63
2022-11-26T12:14:52.836Z,49.95
2022-11-26T12:17:39.293Z,58.47
2022-11-26T12:20:22.916Z,53.72
2022-11-26T12:22:53.985Z,51.40
2022-11-26T12:25:36.839Z,50.33
2022-11-26T12:28:19.831Z,55.17
2022-11-26T12:30:55.474Z,52.20
2022-11-26T12:33:42.029Z,49.67
2022-11-26T12:36:25.764Z,45.97
2022-11-26T12:39:18.795Z,50.10
2022-11-26T12:42:15.475Z,53.15
2022-11-26T12:44:44.747Z,56.80
2022-11-26T12:47:30.015Z,56.33
2022-11-26T12:50:15.869Z,56.88
2022-11-26T12:52:52.100Z,48.30
2022-11-26T12:55:42.690Z,48.03
2022-11-26T12:58:12.462Z,41.60
2022-11-26T13:00:39.276Z,43.03
2022-11-26T13:03:06.741Z,45.67
2022-11-26T13:06:08.757Z,45.55
2022-11-26T13:09:16.158Z,45.08
2022-11-26T13:11:54.879Z,40.92
2022-11-26T13:14:40.681Z,48.45
2022-11-26T13:17:13.308Z,48.88
2022-11-26T13:19:57.303Z,42.00
2022-11-26T13:22:29.830Z,45.08
2022-11-26T13:25:21.428Z,39.08
2022-11-26T13:27:49.318Z,46.75
2022-11-26T13:30:50.786Z,51.80
2022-11-26T13:33:42.513Z,43.25
2022-11-26T13:36:27.804Z,45.72
2022-11-26T13:39:00.308Z,36.95
2022-11-26T13:41:29.890Z,43.05
2022-11-26T13:44:11.514Z,42.90
2022-11-26T13:46:42.006Z,38.13
2022-11-26T13:49:32.210Z,35.97
2022-11-26T13:52:05.288Z,36.67
2022-11-26T13:54:58.739Z,43.42
2022-11-26T13:57:31.626Z,30.55
2022-11-26T13:59:58.843Z,40.88
2022-11-26T14:02:34.876Z,43.08
2022-11-26T14:05:09.226Z,35.78
2022-11-26T14:07:36.140Z,33.20
2022-11-26T14:10:05.980Z,28.10
2022-11-26T14:13:03.732Z,35.90
2022-11-26T14:15:42.384Z,27.63
2022-11-26T14:18:09.538Z,36.13
2022-11-26T14:20:57.893Z,28.00
2022-11-26T14:26:25.978Z,29.90
2022-11-26T14:29:06.335Z,26.25
2022-11-26T14:31:33.987Z,30.60
2022-11-26T14:34:08.619Z,23.23
2022-11-26T14:36:35.189Z,25.95
2022-11-26T14:39:07.735Z,24.95
2022-11-26T14:41:57.883Z,27.10
2022-11-26T14:44:28.742Z,26.13
2022-11-26T14:46:58.660Z,28.00
2022-11-26T14:49:32.642Z,24.90
2022-11-26T14:51:59.961Z,21.95
2022-11-26T14:54:35.292Z,29.63
2022-11-26T14:57:08.426Z,25.45
2022-11-26T14:59:35.112Z,21.08
2022-11-26T15:02:01.925Z,23.10
2022-11-26T15:04:39.113Z,21.88
2022-11-26T15:07:07.327Z,23.35
2022-11-26T15:09:33.871Z,21.75
2022-11-26T15:12:10.034Z,25.75
2022-11-26T15:14:46.877Z,18.95
2022-11-26T15:17:16.975Z,23.27
2022-11-26T15:19:44.248Z,22.05
2022-11-26T15:22:39.785Z,21.02
2022-11-26T15:25:16.520Z,24.05
2022-11-26T15:27:55.648Z,19.65
2022-11-26T15:30:26.920Z,24.80
2022-11-26T15:33:02.427Z,20.42
2022-11-26T15:35:30.197Z,20.88
2022-11-26T15:37:57.603Z,21.60
2022-11-26T15:40:33.139Z,17.40
2022-11-26T15:43:02.774Z,19.50
2022-11-26T15:45:38.928Z,17.38
2022-11-26T15:48:07.474Z,21.85
2022-11-26T15:50:36.608Z,21.73
2022-11-26T15:53:06.024Z,17.30
2022-11-26T15:55:35.256Z,15.60
2022-11-26T15:58:05.584Z,17.15
2022-11-26T16:00:40.836Z,20.83
2022-11-26T16:03:35.610Z,18.20
2022-11-26T16:06:05.030Z,14.55
2022-11-26T16:08:32.159Z,20.35
2022-11-26T16:11:17.710Z,19.15
2022-11-26T16:13:44.302Z,16.63
2022-11-26T16:16:17.548Z,19.30
2022-11-26T16:18:54.086Z,19.85
2022-11-26T16:21:24.535Z,22.85
2022-11-26T16:24:02.667Z,17.85
2022-11-26T16:26:29.754Z,16.77
2022-11-26T16:28:56.364Z,17.35
2022-11-26T16:31:23.441Z,23.35
2022-11-26T16:33:50.201Z,23.20
2022-11-26T16:36:25.194Z,19.42
2022-11-26T16:38:52.537Z,17.30
2022-11-26T16:41:21.190Z,18.58
2022-11-26T16:43:48.746Z,19.13
2022-11-26T16:46:20.736Z,19.23
2022-11-26T16:48:48.086Z,13.25
2022-11-26T16:51:14.921Z,12.80
2022-11-26T16:53:41.936Z,14.30
2022-11-26T16:56:18.973Z,19.98
2022-11-26T16:58:45.675Z,14.52
2022-11-26T17:01:12.253Z,17.25
2022-11-26T17:03:38.963Z,16.48
2022-11-26T17:06:19.482Z,13.23
2022-11-26T17:08:49.780Z,22.98
2022-11-26T17:11:17.176Z,14.15
2022-11-26T17:13:43.970Z,28.42
2022-11-26T17:16:19.209Z,22.67
2022-11-26T17:18:46.278Z,21.02
2022-11-26T17:21:13.036Z,16.13
2022-11-26T17:23:39.723Z,16.58
2022-11-26T17:26:21.049Z,17.70
2022-11-26T17:28:48.313Z,15.82
2022-11-26T17:31:15.240Z,18.42
2022-11-26T17:33:41.818Z,17.35
2022-11-26T17:36:17.517Z,23.90
2022-11-26T17:38:44.362Z,19.88
2022-11-26T17:41:11.348Z,30.55
2022-11-26T17:43:38.552Z,26.63
2022-11-26T17:46:05.495Z,20.27
2022-11-26T17:48:32.179Z,17.20
2022-11-26T17:50:58.766Z,17.48
2022-11-26T17:53:25.326Z,24.77
2022-11-26T17:55:51.879Z,18.17
2022-11-26T17:58:18.453Z,21.73
2022-11-26T18:00:45.032Z,18.02
2022-11-26T18:03:11.554Z,16.25
2022-11-26T18:05:42.068Z,21.30
2022-11-26T18:08:09.053Z,15.82
2022-11-26T18:10:38.595Z,21.02
2022-11-26T18:13:05.132Z,16.48
2022-11-26T18:15:31.715Z,13.10
2022-11-26T18:17:58.343Z,13.05
2022-11-26T18:20:27.169Z,16.17
2022-11-26T18:23:00.763Z,16.60
2022-11-26T18:25:28.392Z,16.90
2022-11-26T18:27:54.964Z,16.53
2022-11-26T18:30:21.714Z,19.38
2022-11-26T18:32:48.339Z,14.93
2022-11-26T18:35:14.999Z,13.32
2022-11-26T18:37:41.954Z,14.80
2022-11-26T18:40:11.493Z,20.38
2022-11-26T18:42:38.505Z,15.40
2022-11-26T18:45:10.781Z,18.73
2022-11-26T18:47:37.804Z,14.18
2022-11-26T18:50:05.381Z,16.55
2022-11-26T18:52:31.988Z,17.65
2022-11-26T18:54:58.705Z,14.50
2022-11-26T18:57:25.295Z,16.05
2022-11-26T18:59:51.874Z,15.73
2022-11-26T19:02:18.582Z,23.10
2022-11-26T19:04:45.876Z,21.13
2022-11-26T19:07:13.918Z,20.27
2022-11-26T19:09:40.892Z,16.73
2022-11-26T19:12:07.831Z,12.95
2022-11-26T19:14:34.396Z,18.92
2022-11-26T19:17:01.050Z,15.88
2022-11-26T19:19:28.241Z,17.85
2022-11-26T19:22:01.047Z,13.77
2022-11-26T19:24:28.720Z,13.70
2022-11-26T19:26:55.419Z,15.27
2022-11-26T19:29:22.047Z,14.85
2022-11-26T19:31:48.629Z,14.82
2022-11-26T19:34:15.873Z,13.75
2022-11-26T19:36:42.991Z,12.63
2022-11-26T19:39:09.614Z,10.82
2022-11-26T19:41:36.241Z,13.88
2022-11-26T19:44:05.339Z,13.07
2022-11-26T19:46:32.117Z,17.60
2022-11-26T19:48:58.799Z,18.45
2022-11-26T19:51:26.887Z,11.65
2022-11-26T19:53:55.535Z,15.90
2022-11-26T19:56:25.290Z,13.18
2022-11-26T19:58:54.029Z,13.45
2022-11-26T20:01:21.648Z,12.13
2022-11-26T20:03:48.471Z,14.00
2022-11-26T20:06:18.879Z,12.90
2022-11-26T20:08:46.751Z,17.13
2022-11-26T20:11:14.534Z,16.13
2022-11-26T20:13:42.734Z,17.05
2022-11-26T20:16:15.386Z,17.75
2022-11-26T20:18:42.091Z,18.48
2022-11-26T20:21:14.029Z,13.10
2022-11-26T20:23:40.846Z,17.10
2022-11-26T20:26:25.141Z,18.83
2022-11-26T20:28:52.667Z,13.43
2022-11-26T20:31:23.293Z,11.85
2022-11-26T20:33:51.330Z,21.63
2022-11-26T20:36:20.918Z,13.98
2022-11-26T20:38:51.278Z,14.10
2022-11-26T20:41:18.085Z,16.98
2022-11-26T20:43:44.998Z,12.15
2022-11-26T20:46:13.164Z,17.88
2022-11-26T20:48:41.371Z,19.60
2022-11-26T20:51:10.634Z,17.58
2022-11-26T20:53:38.337Z,19.60
2022-11-26T20:56:05.794Z,16.65
2022-11-26T20:58:34.442Z,24.55
2022-11-26T21:01:01.542Z,14.27
2022-11-26T21:03:29.178Z,15.45
2022-11-26T21:05:55.802Z,14.97
2022-11-26T21:08:23.217Z,13.55
2022-11-26T21:10:50.469Z,16.10
2022-11-26T21:13:18.771Z,15.93
2022-11-26T21:15:49.294Z,16.48
2022-11-26T21:18:16.282Z,19.05
2022-11-26T21:20:43.983Z,17.88
2022-11-26T21:23:11.855Z,26.38
2022-11-26T21:25:39.986Z,17.30
2022-11-26T21:28:07.146Z,20.65
2022-11-26T21:30:35.316Z,15.88
2022-11-26T21:33:08.727Z,14.00
2022-11-26T21:35:36.357Z,18.98
2022-11-26T21:38:04.177Z,13.57
2022-11-26T21:40:30.813Z,12.98
2022-11-26T21:42:57.466Z,16.45
2022-11-26T21:45:24.460Z,18.80
2022-11-26T21:47:51.859Z,19.35
2022-11-26T21:50:19.471Z,15.55
2022-11-26T21:52:46.671Z,22.87
2022-11-26T21:55:13.296Z,18.73
2022-11-26T21:57:39.914Z,20.80
2022-11-26T22:00:07.311Z,17.02
2022-11-26T22:02:34.051Z,18.45
2022-11-26T22:05:00.688Z,10.07
2022-11-26T22:07:27.818Z,23.38
2022-11-26T22:09:54.667Z,37.40
2022-11-26T22:12:21.287Z,49.00
2022-11-26T22:14:47.842Z,39.30
2022-11-26T22:17:14.392Z,33.75
2022-11-26T22:19:41.364Z,24.75
2022-11-26T22:22:08.435Z,20.50
2022-11-26T22:24:34.994Z,17.70
2022-11-26T22:27:01.590Z,15.02
2022-11-26T22:29:28.147Z,12.70
2022-11-26T22:31:54.748Z,15.68
2022-11-26T22:34:24.731Z,13.40
2022-11-26T22:36:51.450Z,12.15
2022-11-26T22:39:18.556Z,18.02
2022-11-26T22:41:46.261Z,14.65
2022-11-26T22:44:13.719Z,10.82
2022-11-26T22:46:40.321Z,20.08
2022-11-26T22:49:07.478Z,12.10
2022-11-26T22:51:35.279Z,14.48
2022-11-26T22:54:04.640Z,16.85
2022-11-26T22:56:31.790Z,12.65
2022-11-26T22:59:00.025Z,13.93
2022-11-26T23:01:31.911Z,12.55
2022-11-26T23:04:00.118Z,10.95
2022-11-26T23:06:28.577Z,15.10
2022-11-26T23:08:56.630Z,15.40
2022-11-26T23:11:26.110Z,11.52
2022-11-26T23:13:53.398Z,11.18
2022-11-26T23:16:21.666Z,13.00
2022-11-26T23:18:48.512Z,15.90
2022-11-26T23:21:20.759Z,15.73
2022-11-26T23:23:48.242Z,12.88
2022-11-26T23:26:20.406Z,14.85
2022-11-26T23:28:49.985Z,14.57
2022-11-26T23:31:19.861Z,13.98
2022-11-26T23:33:47.164Z,13.10
2022-11-26T23:36:13.997Z,23.77
2022-11-26T23:38:40.848Z,14.63
2022-11-26T23:41:07.885Z,18.00
2022-11-26T23:43:35.719Z,14.40
2022-11-26T23:46:03.770Z,11.55
2022-11-26T23:48:30.847Z,15.45
2022-11-26T23:50:57.557Z,13.25
2022-11-26T23:53:24.270Z,19.15
2022-11-26T23:55:50.890Z,20.17
2022-11-26T23:58:17.556Z,29.63
